Santa Isabel, Brazil
Current Conditions -  °F | °C
As of 5:00 AM on Monday 26 Jan 2015 (Local Time) from SBPJ Reporting Station
Overcast Overcast  
Wind Chill: 70°   Ceiling: 7000
Heat Index: 70°   Visibility: 6mi
Dew Point: 66°   Wind: 2mph
Humidity: 88%   Direction: 80°E
Pressure: 29.94"   Gusts: NA
Location:  11.57°S, 50.67°W
Report Text: SBPJ 260800Z 08002KT 9999 SCT015 OVC070 21/19 Q1014
Loading
Personal Weather Stations






























Interactive Weather Map New forecast layout! Learn more

10-Day Weather Forecast

Advertisements
Track Severe Weather on mobile